createdAt,value
2017-06-11T00:00:34.189Z,79.40
2017-06-11T00:03:00.421Z,80.60
2017-06-11T00:05:26.705Z,80.00
2017-06-11T00:07:52.940Z,80.70
2017-06-11T00:10:19.201Z,79.90
2017-06-11T00:12:45.474Z,80.30
2017-06-11T00:15:11.754Z,79.50
2017-06-11T00:17:38.014Z,79.30
2017-06-11T00:20:19.895Z,80.70
2017-06-11T00:22:46.149Z,80.70
2017-06-11T00:25:12.389Z,80.40
2017-06-11T00:27:38.641Z,80.40
2017-06-11T00:30:04.897Z,81.00
2017-06-11T00:32:31.152Z,81.40
2017-06-11T00:34:58.120Z,80.10
2017-06-11T00:37:24.374Z,80.00
2017-06-11T00:39:50.622Z,82.00
2017-06-11T00:42:16.858Z,82.20
2017-06-11T00:44:43.154Z,82.40
2017-06-11T00:47:09.401Z,81.40
2017-06-11T00:49:35.653Z,83.50
2017-06-11T00:52:01.896Z,83.70
2017-06-11T00:54:28.156Z,83.90
2017-06-11T00:56:54.432Z,83.70
2017-06-11T00:59:20.672Z,81.80
2017-06-11T01:01:46.904Z,83.40
2017-06-11T01:04:13.133Z,83.40
2017-06-11T01:06:39.397Z,84.00
2017-06-11T01:09:05.650Z,85.30
2017-06-11T01:11:38.981Z,83.70
2017-06-11T01:14:05.241Z,84.00
2017-06-11T01:16:32.229Z,83.50
2017-06-11T01:18:58.494Z,83.40
2017-06-11T01:21:24.722Z,83.80
2017-06-11T01:23:50.981Z,83.80
2017-06-11T01:26:17.222Z,84.10
2017-06-11T01:28:43.480Z,84.30
2017-06-11T01:31:09.760Z,84.30
2017-06-11T01:33:36.785Z,84.60
2017-06-11T01:36:03.033Z,84.50
2017-06-11T01:38:30.045Z,85.10
2017-06-11T01:40:56.288Z,85.10
2017-06-11T01:43:22.600Z,85.40
2017-06-11T01:45:48.864Z,85.70
2017-06-11T01:48:15.873Z,86.30
2017-06-11T01:50:42.133Z,85.50
2017-06-11T01:53:08.432Z,85.80
2017-06-11T01:55:34.678Z,86.30
2017-06-11T01:58:00.904Z,84.80
2017-06-11T02:00:27.139Z,85.30
2017-06-11T02:02:53.397Z,85.60
2017-06-11T02:05:20.368Z,85.30
2017-06-11T02:07:46.621Z,85.20
2017-06-11T02:10:12.877Z,85.20
2017-06-11T02:12:39.096Z,85.70
2017-06-11T02:15:05.341Z,86.40
2017-06-11T02:17:31.570Z,86.80
2017-06-11T02:19:57.788Z,87.00
2017-06-11T02:22:24.057Z,87.10
2017-06-11T02:24:50.292Z,86.60
2017-06-11T02:27:16.555Z,86.80
2017-06-11T02:29:42.803Z,87.30
2017-06-11T02:32:09.066Z,86.50
2017-06-11T02:34:36.025Z,87.60
2017-06-11T02:37:02.254Z,87.40
2017-06-11T02:39:28.504Z,87.60
2017-06-11T02:41:54.775Z,87.40
2017-06-11T02:44:21.028Z,87.30
2017-06-11T02:46:47.273Z,88.70
2017-06-11T02:49:13.520Z,87.70
2017-06-11T02:51:39.762Z,88.30
2017-06-11T02:54:06.032Z,87.70
2017-06-11T02:56:33.015Z,87.00
2017-06-11T02:58:59.256Z,87.50
2017-06-11T03:01:25.500Z,87.50
2017-06-11T03:03:51.733Z,87.60
2017-06-11T03:06:17.976Z,87.10
2017-06-11T03:08:44.262Z,87.10
2017-06-11T03:11:17.561Z,87.70
2017-06-11T03:13:43.777Z,87.90
2017-06-11T03:16:10.032Z,87.60
2017-06-11T03:18:36.289Z,87.90
2017-06-11T03:21:02.514Z,87.90
2017-06-11T03:23:28.747Z,87.50
2017-06-11T03:25:55.013Z,88.10
2017-06-11T03:28:21.261Z,88.30
2017-06-11T03:30:47.518Z,88.10
2017-06-11T03:33:13.768Z,87.90
2017-06-11T03:35:40.016Z,88.00
2017-06-11T03:38:06.991Z,88.00
2017-06-11T03:40:33.243Z,88.00
2017-06-11T03:42:59.521Z,88.30
2017-06-11T03:45:26.545Z,88.70
2017-06-11T03:47:52.829Z,88.70
2017-06-11T03:50:19.066Z,88.40
2017-06-11T03:52:45.326Z,88.40
2017-06-11T03:55:11.556Z,88.30
2017-06-11T03:57:37.813Z,87.80
2017-06-11T04:00:04.804Z,87.80
2017-06-11T04:02:31.072Z,87.80
2017-06-11T04:04:57.294Z,87.90
2017-06-11T04:07:23.555Z,87.70
2017-06-11T04:09:50.528Z,88.30
2017-06-11T04:12:16.773Z,88.20
2017-06-11T04:14:43.017Z,87.60
2017-06-11T04:17:09.265Z,88.00
2017-06-11T04:19:35.509Z,88.00
2017-06-11T04:22:02.479Z,87.10
2017-06-11T04:24:28.705Z,87.00
2017-06-11T04:26:54.961Z,87.20
2017-06-11T04:29:21.202Z,86.70
2017-06-11T04:31:47.453Z,86.90
2017-06-11T04:34:13.716Z,87.60
2017-06-11T04:36:39.958Z,87.30
2017-06-11T04:39:06.213Z,86.50
2017-06-11T04:41:32.453Z,86.90
2017-06-11T04:43:58.704Z,87.40
2017-06-11T04:46:25.686Z,86.50
2017-06-11T04:48:51.961Z,87.00
2017-06-11T04:51:18.237Z,86.90
2017-06-11T04:53:44.490Z,87.20
2017-06-11T04:56:10.772Z,86.70
2017-06-11T04:58:37.034Z,85.60
2017-06-11T05:01:03.264Z,86.10
2017-06-11T05:03:29.505Z,84.70
2017-06-11T05:05:55.724Z,83.50
2017-06-11T05:08:21.973Z,82.90
2017-06-11T05:10:48.213Z,82.40
2017-06-11T05:13:14.462Z,81.90
2017-06-11T05:15:40.721Z,81.50
2017-06-11T05:18:06.977Z,80.90
2017-06-11T05:20:33.245Z,80.40
2017-06-11T05:22:59.477Z,79.80
2017-06-11T05:25:25.737Z,79.20
2017-06-11T05:28:07.156Z,78.50
2017-06-11T05:30:33.413Z,77.90
2017-06-11T05:32:59.649Z,77.10
2017-06-11T05:35:25.866Z,75.70
2017-06-11T05:37:52.123Z,75.30
2017-06-11T05:40:19.076Z,73.70
2017-06-11T05:42:46.124Z,71.80
2017-06-11T05:45:12.360Z,71.60
2017-06-11T05:47:38.622Z,69.70
2017-06-11T05:50:04.856Z,69.30
2017-06-11T05:52:31.109Z,68.20
2017-06-11T05:54:57.373Z,67.50
2017-06-11T05:57:23.607Z,66.20
2017-06-11T05:59:49.905Z,66.50
2017-06-11T06:02:16.144Z,62.40
2017-06-11T06:04:43.132Z,61.90
2017-06-11T06:07:09.387Z,61.70
2017-06-11T06:09:35.630Z,60.40
2017-06-11T06:12:01.913Z,60.10
2017-06-11T06:14:28.160Z,59.60
2017-06-11T06:16:54.438Z,59.90
2017-06-11T06:19:21.455Z,59.60
2017-06-11T06:21:47.689Z,59.50
2017-06-11T06:24:13.966Z,59.10
2017-06-11T06:26:40.230Z,58.50
2017-06-11T06:29:06.485Z,58.50
2017-06-11T06:31:32.781Z,58.50
2017-06-11T06:33:59.077Z,57.90
2017-06-11T06:36:25.326Z,57.50
2017-06-11T06:38:51.568Z,57.90
2017-06-11T06:41:17.824Z,56.90
2017-06-11T06:43:44.097Z,57.60
2017-06-11T06:46:11.082Z,56.40
2017-06-11T06:48:37.337Z,56.40
2017-06-11T06:51:03.601Z,56.80
2017-06-11T06:53:29.854Z,55.30
2017-06-11T06:55:56.133Z,54.80
2017-06-11T06:58:22.358Z,53.20
2017-06-11T07:00:48.614Z,51.60
2017-06-11T07:03:14.882Z,50.40
2017-06-11T07:05:41.113Z,49.20
2017-06-11T07:08:07.362Z,50.00
2017-06-11T07:10:33.617Z,47.00
2017-06-11T07:13:00.587Z,44.30
2017-06-11T07:15:26.837Z,44.20
2017-06-11T07:17:53.102Z,45.30
2017-06-11T07:20:19.365Z,43.80
2017-06-11T07:22:46.345Z,41.90
2017-06-11T07:25:12.568Z,41.70
2017-06-11T07:27:38.809Z,42.20
2017-06-11T07:30:05.053Z,42.80
2017-06-11T07:32:31.321Z,42.70
2017-06-11T07:34:58.298Z,41.90
2017-06-11T07:37:24.535Z,41.80
2017-06-11T07:39:50.778Z,40.90
2017-06-11T07:42:17.026Z,39.70
2017-06-11T07:44:43.282Z,38.10
2017-06-11T07:47:10.258Z,39.50
2017-06-11T07:49:36.522Z,39.50
2017-06-11T07:52:02.811Z,37.00
2017-06-11T07:54:29.058Z,38.00
2017-06-11T07:56:55.292Z,38.90
2017-06-11T07:59:21.537Z,40.00
2017-06-11T08:01:47.790Z,38.70
2017-06-11T08:04:14.769Z,39.10
2017-06-11T08:06:41.008Z,38.90
2017-06-11T08:09:07.302Z,39.00
2017-06-11T08:11:34.287Z,39.20
2017-06-11T08:14:00.544Z,38.40
2017-06-11T08:16:26.820Z,39.30
2017-06-11T08:18:53.071Z,39.80
2017-06-11T08:21:19.353Z,38.70
2017-06-11T08:23:45.593Z,37.60
2017-06-11T08:26:12.605Z,36.00
2017-06-11T08:28:38.856Z,35.90
2017-06-11T08:31:05.083Z,37.10
2017-06-11T08:33:31.324Z,36.10
2017-06-11T08:35:57.590Z,36.70
2017-06-11T08:38:23.845Z,37.10
2017-06-11T08:40:50.089Z,35.30
2017-06-11T08:43:16.362Z,34.50
2017-06-11T08:45:42.589Z,35.30
2017-06-11T08:48:09.595Z,36.40
2017-06-11T08:50:35.848Z,36.40
2017-06-11T08:53:02.120Z,34.50
2017-06-11T08:55:28.385Z,35.40
2017-06-11T08:57:54.665Z,35.30
2017-06-11T09:00:20.925Z,35.00
2017-06-11T09:02:47.192Z,32.50
2017-06-11T09:05:13.457Z,31.20
2017-06-11T09:07:39.694Z,31.80
2017-06-11T09:10:05.983Z,32.10
2017-06-11T09:12:32.261Z,32.80
2017-06-11T09:14:58.535Z,31.80
2017-06-11T09:17:24.801Z,31.20
2017-06-11T09:19:51.068Z,32.80
2017-06-11T09:22:17.315Z,32.60
2017-06-11T09:24:43.569Z,32.90
2017-06-11T09:27:10.557Z,30.90
2017-06-11T09:29:36.793Z,30.80
2017-06-11T09:32:03.068Z,31.70
2017-06-11T09:34:30.034Z,28.10
2017-06-11T09:36:56.288Z,28.40
2017-06-11T09:39:22.546Z,28.40
2017-06-11T09:41:48.830Z,32.40
2017-06-11T09:44:15.081Z,30.70
2017-06-11T09:46:41.330Z,29.30
2017-06-11T09:49:07.601Z,31.50
2017-06-11T09:51:34.573Z,29.60
2017-06-11T09:54:00.840Z,29.00
2017-06-11T09:56:27.070Z,30.00
2017-06-11T09:58:53.329Z,30.30
2017-06-11T10:01:20.289Z,27.00
2017-06-11T10:03:46.545Z,26.90
2017-06-11T10:06:12.832Z,28.00
2017-06-11T10:08:39.789Z,28.40
2017-06-11T10:11:06.041Z,28.40
2017-06-11T10:13:32.273Z,27.80
2017-06-11T10:15:58.541Z,28.00
2017-06-11T10:18:24.776Z,26.50
2017-06-11T10:20:50.993Z,25.00
2017-06-11T10:23:17.260Z,25.20
2017-06-11T10:25:43.510Z,25.70
2017-06-11T10:28:09.764Z,26.80
2017-06-11T10:30:36.001Z,27.10
2017-06-11T10:33:02.268Z,27.40
2017-06-11T10:35:29.264Z,25.60
2017-06-11T10:37:55.485Z,25.60
2017-06-11T10:40:21.715Z,25.90
2017-06-11T10:42:47.990Z,26.80
2017-06-11T10:45:14.246Z,29.00
2017-06-11T10:47:40.506Z,26.50
2017-06-11T10:50:06.802Z,28.20
2017-06-11T10:52:33.057Z,26.90
2017-06-11T10:54:59.297Z,28.20
2017-06-11T10:57:25.541Z,26.90
2017-06-11T10:59:51.793Z,26.70
2017-06-11T11:02:18.060Z,27.70
2017-06-11T11:04:44.316Z,27.90
2017-06-11T11:07:10.596Z,28.60
2017-06-11T11:09:37.636Z,30.30
2017-06-11T11:12:04.685Z,29.70
2017-06-11T11:14:46.669Z,30.80
2017-06-11T11:17:12.935Z,31.10
2017-06-11T11:19:39.205Z,29.70
2017-06-11T11:22:05.481Z,32.50
2017-06-11T11:24:32.485Z,32.10
2017-06-11T11:26:58.729Z,32.10
2017-06-11T11:29:25.005Z,33.90
2017-06-11T11:31:51.246Z,33.40
2017-06-11T11:34:17.499Z,32.30
2017-06-11T11:36:43.719Z,33.50
2017-06-11T11:39:10.030Z,36.10
2017-06-11T11:41:36.340Z,35.50
2017-06-11T11:44:03.338Z,37.70
2017-06-11T11:46:29.600Z,37.80
2017-06-11T11:48:56.588Z,37.00
2017-06-11T11:51:22.848Z,36.40
2017-06-11T11:53:49.068Z,36.40
2017-06-11T11:56:15.298Z,36.00
2017-06-11T11:58:41.556Z,34.40
2017-06-11T12:01:08.556Z,37.20
2017-06-11T12:03:34.797Z,36.90
2017-06-11T12:06:01.068Z,34.40
2017-06-11T12:08:28.086Z,34.20
2017-06-11T12:10:54.348Z,33.80
2017-06-11T12:13:36.305Z,35.70
2017-06-11T12:16:02.557Z,35.30
2017-06-11T12:18:28.785Z,36.40
2017-06-11T12:20:55.027Z,37.20
2017-06-11T12:23:21.982Z,38.00
2017-06-11T12:25:48.983Z,35.90
2017-06-11T12:28:15.231Z,36.00
2017-06-11T12:30:41.522Z,35.20
2017-06-11T12:33:07.771Z,36.00
2017-06-11T12:35:34.013Z,35.10
2017-06-11T12:38:00.263Z,36.00
2017-06-11T12:40:26.505Z,35.50
2017-06-11T12:42:53.530Z,32.50
2017-06-11T12:45:19.774Z,32.50
2017-06-11T12:47:47.219Z,34.70
2017-06-11T12:50:13.484Z,34.80
2017-06-11T12:52:39.717Z,36.60
2017-06-11T12:55:06.002Z,34.40
2017-06-11T12:57:32.278Z,34.30
2017-06-11T12:59:58.501Z,34.70
2017-06-11T13:02:24.735Z,35.60
2017-06-11T13:04:50.997Z,31.30
2017-06-11T13:07:17.221Z,33.90
2017-06-11T13:09:43.471Z,33.00
2017-06-11T13:12:09.729Z,31.30
2017-06-11T13:14:36.753Z,30.30
2017-06-11T13:17:03.004Z,30.30
2017-06-11T13:19:30.017Z,30.70
2017-06-11T13:21:56.272Z,30.60
2017-06-11T13:24:22.576Z,30.10
2017-06-11T13:26:48.801Z,30.70
2017-06-11T13:29:15.074Z,31.10
2017-06-11T13:31:42.045Z,31.30
2017-06-11T13:34:08.326Z,31.20
2017-06-11T13:36:34.548Z,32.30
2017-06-11T13:39:00.789Z,34.00
2017-06-11T13:41:27.054Z,31.80
2017-06-11T13:43:53.312Z,32.50
2017-06-11T13:46:19.546Z,32.90
2017-06-11T13:48:45.833Z,32.80
2017-06-11T13:51:12.056Z,32.60
2017-06-11T13:53:39.045Z,31.90
2017-06-11T13:56:05.292Z,31.90
2017-06-11T13:58:31.594Z,31.80
2017-06-11T14:00:57.821Z,31.10
2017-06-11T14:03:24.095Z,30.50
2017-06-11T14:05:50.332Z,32.20
2017-06-11T14:08:17.332Z,32.50
2017-06-11T14:10:43.594Z,32.40
2017-06-11T14:13:09.899Z,30.40
2017-06-11T14:15:36.126Z,30.90
2017-06-11T14:18:02.340Z,35.30
2017-06-11T14:20:35.549Z,31.50
2017-06-11T14:23:01.828Z,30.40
2017-06-11T14:25:36.566Z,30.80
2017-06-11T14:28:02.843Z,30.90
2017-06-11T14:30:29.063Z,31.50
2017-06-11T14:32:55.331Z,32.10
2017-06-11T14:35:22.297Z,31.20
2017-06-11T14:37:48.562Z,31.20
2017-06-11T14:40:14.832Z,32.50
2017-06-11T14:42:41.082Z,30.50
2017-06-11T14:45:08.102Z,32.80
2017-06-11T14:47:34.347Z,32.80
2017-06-11T14:50:01.336Z,31.60
2017-06-11T14:52:27.597Z,31.50
2017-06-11T14:54:53.861Z,31.20
2017-06-11T14:57:20.880Z,32.60
2017-06-11T14:59:47.145Z,32.50
2017-06-11T15:02:13.360Z,32.40
2017-06-11T15:04:40.353Z,32.70
2017-06-11T15:07:06.622Z,32.70
2017-06-11T15:09:32.857Z,34.20
2017-06-11T15:11:59.084Z,32.20
2017-06-11T15:14:25.327Z,32.20
2017-06-11T15:16:52.346Z,32.50
2017-06-11T15:19:18.633Z,32.50
2017-06-11T15:21:44.861Z,32.90
2017-06-11T15:24:11.174Z,33.20
2017-06-11T15:26:37.426Z,33.40
2017-06-11T15:29:03.660Z,33.30
2017-06-11T15:31:29.941Z,33.10
2017-06-11T15:33:56.913Z,32.40
2017-06-11T15:36:23.177Z,32.40
2017-06-11T15:38:49.458Z,32.90
2017-06-11T15:41:16.442Z,33.00
2017-06-11T15:43:42.710Z,33.00
2017-06-11T15:46:08.932Z,33.60
2017-06-11T15:48:35.206Z,33.00
2017-06-11T15:51:01.433Z,32.70
2017-06-11T15:53:27.685Z,33.30
2017-06-11T15:55:53.905Z,34.00
2017-06-11T15:58:20.165Z,34.70
2017-06-11T16:00:46.455Z,34.00
2017-06-11T16:03:12.682Z,34.10
2017-06-11T16:05:38.924Z,33.40
2017-06-11T16:08:05.156Z,34.30
2017-06-11T16:10:31.428Z,34.30
2017-06-11T16:12:57.652Z,33.20
2017-06-11T16:15:23.896Z,33.60
2017-06-11T16:17:50.150Z,33.00
2017-06-11T16:20:16.385Z,33.30
2017-06-11T16:22:42.630Z,34.00
2017-06-11T16:25:08.905Z,33.50
2017-06-11T16:27:35.141Z,33.20
2017-06-11T16:30:01.405Z,33.70
2017-06-11T16:32:27.624Z,34.30
2017-06-11T16:34:53.866Z,33.70
2017-06-11T16:37:20.116Z,33.60
2017-06-11T16:39:46.344Z,34.30
2017-06-11T16:42:12.593Z,35.70
2017-06-11T16:44:38.857Z,35.40
2017-06-11T16:47:05.836Z,36.50
2017-06-11T16:49:32.080Z,36.50
2017-06-11T16:51:58.309Z,35.80
2017-06-11T16:54:24.557Z,37.10
2017-06-11T16:56:50.772Z,36.70
2017-06-11T16:59:16.993Z,36.60
2017-06-11T17:01:50.053Z,35.80
2017-06-11T17:04:16.282Z,36.80
2017-06-11T17:06:42.521Z,38.10
2017-06-11T17:09:08.757Z,38.00
2017-06-11T17:11:35.004Z,37.30
2017-06-11T17:14:01.261Z,37.40
2017-06-11T17:16:27.498Z,37.20
2017-06-11T17:18:53.740Z,38.20
2017-06-11T17:21:20.759Z,38.70
2017-06-11T17:23:47.078Z,38.60
2017-06-11T17:26:13.340Z,38.60
2017-06-11T17:28:40.337Z,38.80
2017-06-11T17:31:06.620Z,38.70
2017-06-11T17:33:33.632Z,43.30
2017-06-11T17:35:59.865Z,42.70
2017-06-11T17:38:26.113Z,43.20
2017-06-11T17:40:53.074Z,45.10
2017-06-11T17:43:20.069Z,44.50
2017-06-11T17:45:46.345Z,44.50
2017-06-11T17:48:12.593Z,44.40
2017-06-11T17:50:38.918Z,45.00
2017-06-11T17:53:05.154Z,44.90
2017-06-11T17:55:31.421Z,45.70
2017-06-11T17:57:57.662Z,47.10
2017-06-11T18:00:23.943Z,46.20
2017-06-11T18:02:50.180Z,46.60
2017-06-11T18:05:16.461Z,46.60
2017-06-11T18:07:43.225Z,46.90
2017-06-11T18:10:10.216Z,48.10
2017-06-11T18:12:36.513Z,48.10
2017-06-11T18:15:02.821Z,47.40
2017-06-11T18:17:30.214Z,48.10
2017-06-11T18:19:59.725Z,48.00
2017-06-11T18:22:25.957Z,47.60
2017-06-11T18:24:53.609Z,47.90
2017-06-11T18:27:19.885Z,48.30
2017-06-11T18:29:47.591Z,48.20
2017-06-11T18:32:14.410Z,48.30
2017-06-11T18:34:41.560Z,49.40
2017-06-11T18:37:08.580Z,49.20
2017-06-11T18:39:34.846Z,49.40
2017-06-11T18:42:01.873Z,49.30
2017-06-11T18:44:28.120Z,49.20
2017-06-11T18:46:55.110Z,49.80
2017-06-11T18:49:21.398Z,49.70
2017-06-11T18:51:48.387Z,52.00
2017-06-11T18:54:14.641Z,51.40
2017-06-11T18:56:40.878Z,51.40
2017-06-11T18:59:07.153Z,51.60
2017-06-11T19:01:33.416Z,52.40
2017-06-11T19:03:59.663Z,51.90
2017-06-11T19:06:30.124Z,51.90
2017-06-11T19:09:03.957Z,53.20
2017-06-11T19:11:30.197Z,54.00
2017-06-11T19:13:56.437Z,54.00
2017-06-11T19:16:22.742Z,53.50
2017-06-11T19:18:49.005Z,53.60
2017-06-11T19:21:15.242Z,54.30
2017-06-11T19:23:41.509Z,54.80
2017-06-11T19:26:07.756Z,54.70
2017-06-11T19:28:34.070Z,54.70
2017-06-11T19:31:01.106Z,55.00
2017-06-11T19:33:28.105Z,55.40
2017-06-11T19:35:54.332Z,55.90
2017-06-11T19:38:20.620Z,55.30
2017-06-11T19:40:47.645Z,55.60
2017-06-11T19:43:13.925Z,55.60
2017-06-11T19:45:40.214Z,55.90
2017-06-11T19:48:07.224Z,55.80
2017-06-11T19:50:33.530Z,55.70
2017-06-11T19:52:59.815Z,56.10
2017-06-11T19:55:26.149Z,56.70
2017-06-11T19:57:52.393Z,56.70
2017-06-11T20:00:19.439Z,56.80
2017-06-11T20:02:46.427Z,57.80
2017-06-11T20:05:12.691Z,57.60
2017-06-11T20:07:38.973Z,57.30
2017-06-11T20:10:05.237Z,58.00
2017-06-11T20:12:33.221Z,57.80
2017-06-11T20:15:00.246Z,60.40
2017-06-11T20:17:26.480Z,60.30
2017-06-11T20:19:52.785Z,61.50
2017-06-11T20:22:19.050Z,64.10
2017-06-11T20:24:45.319Z,65.40
2017-06-11T20:27:11.593Z,64.70
2017-06-11T20:29:38.701Z,64.80
2017-06-11T20:32:04.955Z,64.80
2017-06-11T20:34:31.180Z,67.10
2017-06-11T20:36:57.492Z,66.10
2017-06-11T20:39:23.744Z,66.60
2017-06-11T20:41:50.005Z,67.10
2017-06-11T20:44:16.284Z,65.40
2017-06-11T20:46:42.516Z,65.50
2017-06-11T20:49:08.794Z,65.80
2017-06-11T20:51:35.039Z,64.50
2017-06-11T20:54:01.288Z,64.20
2017-06-11T20:56:27.566Z,62.90
2017-06-11T20:58:53.815Z,63.40
2017-06-11T21:01:20.070Z,64.50
2017-06-11T21:03:47.086Z,65.40
2017-06-11T21:06:13.352Z,66.10
2017-06-11T21:08:39.601Z,65.60
2017-06-11T21:11:05.836Z,66.20
2017-06-11T21:13:32.086Z,65.90
2017-06-11T21:15:58.331Z,65.40
2017-06-11T21:18:24.701Z,65.70
2017-06-11T21:20:50.953Z,65.10
2017-06-11T21:23:17.216Z,65.80
2017-06-11T21:25:43.494Z,66.50
2017-06-11T21:28:09.716Z,68.10
2017-06-11T21:30:35.992Z,68.50
2017-06-11T21:33:02.245Z,68.60
2017-06-11T21:35:28.492Z,68.00
2017-06-11T21:37:55.494Z,67.50
2017-06-11T21:40:21.785Z,67.40
2017-06-11T21:42:48.044Z,67.30
2017-06-11T21:45:14.321Z,68.90
2017-06-11T21:47:41.308Z,69.40
2017-06-11T21:50:07.549Z,69.20
2017-06-11T21:52:33.801Z,69.40
2017-06-11T21:55:00.045Z,70.00
2017-06-11T21:57:26.313Z,70.50
2017-06-11T21:59:52.557Z,71.20
2017-06-11T22:02:18.823Z,70.80
2017-06-11T22:04:45.058Z,72.80
2017-06-11T22:07:11.345Z,74.00
2017-06-11T22:09:37.620Z,72.20
2017-06-11T22:12:03.832Z,72.30
2017-06-11T22:14:30.100Z,72.70
2017-06-11T22:16:57.082Z,73.00
2017-06-11T22:19:23.317Z,73.00
2017-06-11T22:21:49.586Z,72.40
2017-06-11T22:24:15.829Z,72.80
2017-06-11T22:26:42.824Z,74.00
2017-06-11T22:29:09.049Z,73.90
2017-06-11T22:31:35.320Z,73.00
2017-06-11T22:34:02.380Z,72.30
2017-06-11T22:36:29.362Z,72.60
2017-06-11T22:38:55.650Z,72.60
2017-06-11T22:41:22.634Z,72.70
2017-06-11T22:43:48.897Z,72.50
2017-06-11T22:46:15.165Z,72.00
2017-06-11T22:48:42.137Z,72.50
2017-06-11T22:51:08.380Z,71.70
2017-06-11T22:53:34.629Z,71.10
2017-06-11T22:56:00.913Z,71.20
2017-06-11T22:58:27.153Z,71.50
2017-06-11T23:00:53.391Z,72.80
2017-06-11T23:03:26.508Z,72.30
2017-06-11T23:05:52.777Z,72.30
2017-06-11T23:08:19.744Z,71.40
2017-06-11T23:10:45.985Z,71.40
2017-06-11T23:13:12.252Z,71.30
2017-06-11T23:15:38.493Z,73.30
2017-06-11T23:18:04.737Z,74.00
2017-06-11T23:20:31.720Z,73.60
2017-06-11T23:22:57.965Z,73.60
2017-06-11T23:25:24.219Z,73.70
2017-06-11T23:27:50.440Z,73.40
2017-06-11T23:30:16.711Z,75.30
2017-06-11T23:32:42.942Z,76.00
2017-06-11T23:35:09.200Z,75.20
2017-06-11T23:37:35.454Z,75.00
2017-06-11T23:40:01.708Z,75.40
2017-06-11T23:42:27.957Z,75.20
2017-06-11T23:44:54.213Z,74.60
2017-06-11T23:47:20.460Z,75.50
2017-06-11T23:49:46.718Z,75.60
2017-06-11T23:52:12.964Z,75.00
2017-06-11T23:54:39.952Z,73.20
2017-06-11T23:57:06.437Z,73.10
2017-06-11T23:59:33.425Z,72.50
